createdAt,value
2018-07-10T00:01:44.522Z,19.31
2018-07-10T00:04:12.834Z,19.15
2018-07-10T00:06:41.724Z,19.12
2018-07-10T00:09:10.098Z,19.03
2018-07-10T00:11:37.830Z,19.01
2018-07-10T00:14:06.152Z,18.95
2018-07-10T00:16:35.562Z,18.96
2018-07-10T00:19:03.881Z,19.03
2018-07-10T00:21:32.223Z,19.01
2018-07-10T00:23:59.964Z,18.98
2018-07-10T00:26:29.232Z,18.97
2018-07-10T00:28:57.953Z,18.94
2018-07-10T00:31:26.265Z,18.88
2018-07-10T00:33:54.996Z,18.80
2018-07-10T00:36:23.069Z,18.74
2018-07-10T00:38:57.534Z,18.68
2018-07-10T00:41:26.139Z,18.56
2018-07-10T00:43:54.688Z,18.48
2018-07-10T00:46:22.567Z,18.38
2018-07-10T00:48:51.736Z,18.34
2018-07-10T00:51:20.586Z,18.29
2018-07-10T00:53:49.883Z,18.22
2018-07-10T00:56:17.631Z,18.21
2018-07-10T00:58:45.941Z,18.15
2018-07-10T01:01:14.846Z,18.18
2018-07-10T01:03:43.289Z,18.23
2018-07-10T01:06:11.606Z,18.20
2018-07-10T01:08:39.921Z,18.16
2018-07-10T01:11:08.413Z,18.11
2018-07-10T01:13:36.733Z,18.08
2018-07-10T01:16:04.719Z,18.15
2018-07-10T01:18:33.373Z,18.24
2018-07-10T01:21:01.135Z,18.36
2018-07-10T01:23:29.427Z,18.43
2018-07-10T01:25:57.744Z,18.42
2018-07-10T01:28:26.062Z,18.47
2018-07-10T01:30:54.375Z,18.47
2018-07-10T01:33:22.692Z,18.45
2018-07-10T01:35:51.586Z,18.45
2018-07-10T01:38:19.898Z,18.42
2018-07-10T01:40:48.529Z,18.37
2018-07-10T01:43:16.853Z,18.42
2018-07-10T01:45:44.581Z,18.50
2018-07-10T01:48:12.901Z,18.56
2018-07-10T01:50:41.794Z,18.61
2018-07-10T01:53:09.927Z,18.66
2018-07-10T01:55:38.446Z,18.72
2018-07-10T01:58:06.320Z,18.74
2018-07-10T02:00:35.380Z,18.77
2018-07-10T02:03:03.703Z,18.80
2018-07-10T02:05:33.581Z,18.83
2018-07-10T02:08:01.266Z,18.84
2018-07-10T02:10:29.575Z,18.88
2018-07-10T02:12:57.331Z,18.93
2018-07-10T02:15:26.224Z,18.99
2018-07-10T02:17:53.967Z,19.05
2018-07-10T02:20:22.294Z,19.07
2018-07-10T02:22:50.620Z,19.12
2018-07-10T02:25:18.928Z,19.07
2018-07-10T02:27:47.824Z,19.04
2018-07-10T02:30:16.484Z,18.90
2018-07-10T02:32:44.794Z,18.80
2018-07-10T02:35:13.117Z,18.82
2018-07-10T02:37:41.701Z,18.90
2018-07-10T02:40:09.449Z,18.98
2018-07-10T02:42:38.334Z,19.04
2018-07-10T02:45:06.083Z,19.09
2018-07-10T02:47:34.982Z,19.14
2018-07-10T02:50:02.726Z,19.19
2018-07-10T02:52:31.616Z,19.22
2018-07-10T02:54:59.934Z,19.20
2018-07-10T02:57:28.259Z,19.13
2018-07-10T02:59:56.072Z,19.02
2018-07-10T03:02:24.903Z,19.05
2018-07-10T03:04:53.211Z,19.14
2018-07-10T03:07:21.679Z,19.20
2018-07-10T03:09:50.394Z,19.27
2018-07-10T03:12:18.350Z,19.33
2018-07-10T03:14:47.278Z,19.35
2018-07-10T03:17:15.080Z,19.36
2018-07-10T03:19:43.409Z,19.32
2018-07-10T03:22:12.213Z,19.33
2018-07-10T03:24:40.543Z,19.33
2018-07-10T03:27:09.199Z,19.40
2018-07-10T03:29:37.508Z,19.43
2018-07-10T03:32:05.244Z,19.45
2018-07-10T03:34:33.566Z,19.47
2018-07-10T03:37:02.828Z,19.47
2018-07-10T03:39:31.167Z,19.46
2018-07-10T03:41:59.484Z,19.48
2018-07-10T03:44:28.040Z,19.47
2018-07-10T03:46:56.350Z,19.46
2018-07-10T03:49:24.672Z,19.47
2018-07-10T03:51:52.407Z,19.48
2018-07-10T03:54:20.732Z,19.48
2018-07-10T03:56:49.625Z,19.48
2018-07-10T03:59:17.949Z,19.46
2018-07-10T04:01:46.283Z,19.50
2018-07-10T04:04:14.030Z,19.51
2018-07-10T04:06:42.339Z,19.49
2018-07-10T04:09:10.695Z,19.49
2018-07-10T04:11:39.021Z,19.49
2018-07-10T04:14:07.283Z,19.48
2018-07-10T04:16:35.644Z,19.49
2018-07-10T04:19:04.560Z,19.52
2018-07-10T04:21:32.292Z,19.57
2018-07-10T04:24:01.176Z,19.62
2018-07-10T04:26:29.492Z,19.63
2018-07-10T04:28:57.485Z,19.63
2018-07-10T04:31:25.629Z,19.63
2018-07-10T04:33:54.444Z,19.66
2018-07-10T04:36:22.177Z,19.68
2018-07-10T04:38:51.074Z,19.69
2018-07-10T04:41:19.406Z,19.69
2018-07-10T04:43:47.144Z,19.65
2018-07-10T04:46:15.490Z,19.69
2018-07-10T04:48:44.358Z,19.73
2018-07-10T04:51:12.681Z,19.76
2018-07-10T04:53:40.412Z,19.78
2018-07-10T04:56:09.306Z,19.81
2018-07-10T04:58:37.044Z,19.83
2018-07-10T05:01:05.941Z,19.81
2018-07-10T05:03:33.679Z,19.82
2018-07-10T05:06:02.191Z,19.87
2018-07-10T05:08:30.380Z,19.87
2018-07-10T05:10:59.205Z,19.89
2018-07-10T05:13:26.943Z,19.95
2018-07-10T05:15:55.840Z,19.99
2018-07-10T05:18:24.197Z,20.01
2018-07-10T05:20:53.497Z,20.01
2018-07-10T05:23:21.456Z,20.02
2018-07-10T05:25:49.209Z,20.02
2018-07-10T05:28:18.111Z,20.05
2018-07-10T05:30:46.430Z,20.08
2018-07-10T05:33:14.744Z,20.11
2018-07-10T05:35:43.065Z,20.14
2018-07-10T05:38:11.387Z,20.16
2018-07-10T05:40:39.121Z,20.14
2018-07-10T05:43:07.600Z,20.20
2018-07-10T05:45:35.893Z,20.25
2018-07-10T05:48:04.647Z,20.28
2018-07-10T05:50:32.403Z,20.32
2018-07-10T05:53:01.045Z,20.33
2018-07-10T05:55:29.011Z,20.36
2018-07-10T05:57:57.901Z,20.39
2018-07-10T06:00:25.654Z,20.40
2018-07-10T06:02:54.528Z,20.47
2018-07-10T06:05:22.840Z,20.53
2018-07-10T06:07:50.590Z,20.60
2018-07-10T06:10:18.923Z,20.63
2018-07-10T06:12:47.799Z,20.63
2018-07-10T06:15:16.146Z,20.65
2018-07-10T06:17:44.434Z,20.69
2018-07-10T06:20:12.166Z,20.70
2018-07-10T06:22:41.056Z,20.75
2018-07-10T06:25:09.368Z,20.76
2018-07-10T06:27:37.681Z,20.78
2018-07-10T06:30:05.990Z,20.79
2018-07-10T06:32:34.300Z,20.81
2018-07-10T06:35:02.331Z,20.80
2018-07-10T06:37:30.372Z,20.82
2018-07-10T06:39:58.689Z,20.83
2018-07-10T06:42:26.993Z,20.91
2018-07-10T06:44:55.338Z,20.96
2018-07-10T06:47:23.613Z,20.99
2018-07-10T06:49:52.395Z,21.02
2018-07-10T06:52:20.929Z,21.02
2018-07-10T06:54:48.580Z,21.05
2018-07-10T06:57:17.477Z,21.07
2018-07-10T06:59:45.210Z,21.10
2018-07-10T07:02:14.111Z,21.14
2018-07-10T07:04:42.097Z,21.18
2018-07-10T07:07:10.169Z,21.25
2018-07-10T07:09:39.060Z,21.30
2018-07-10T07:12:07.373Z,21.36
2018-07-10T07:14:35.687Z,21.47
2018-07-10T07:17:04.009Z,21.59
2018-07-10T07:19:32.327Z,21.71
2018-07-10T07:22:00.957Z,21.80
2018-07-10T07:24:29.271Z,21.88
2018-07-10T07:26:57.582Z,22.01
2018-07-10T07:29:25.334Z,22.10
2018-07-10T07:31:53.654Z,22.18
2018-07-10T07:34:22.548Z,22.21
2018-07-10T07:36:50.870Z,22.26
2018-07-10T07:39:18.817Z,22.32
2018-07-10T07:41:47.516Z,22.32
2018-07-10T07:44:15.298Z,22.37
2018-07-10T07:46:43.578Z,22.33
2018-07-10T07:49:12.474Z,22.41
2018-07-10T07:51:40.211Z,22.51
2018-07-10T07:54:09.113Z,22.54
2018-07-10T07:56:37.428Z,22.44
2018-07-10T07:59:05.168Z,22.39
2018-07-10T08:01:33.543Z,22.38
2018-07-10T08:04:01.806Z,22.39
2018-07-10T08:06:30.186Z,22.41
2018-07-10T08:08:58.505Z,22.44
2018-07-10T08:11:27.401Z,22.52
2018-07-10T08:13:55.145Z,22.67
2018-07-10T08:16:23.472Z,22.82
2018-07-10T08:18:51.809Z,22.93
2018-07-10T08:21:20.441Z,22.97
2018-07-10T08:23:48.515Z,23.02
2018-07-10T08:26:17.409Z,22.99
2018-07-10T08:28:45.154Z,23.00
2018-07-10T08:31:13.462Z,22.97
2018-07-10T08:33:41.893Z,23.04
2018-07-10T08:36:10.089Z,23.05
2018-07-10T08:38:38.408Z,23.12
2018-07-10T08:41:06.725Z,23.05
2018-07-10T08:43:35.057Z,23.01
2018-07-10T08:46:04.024Z,23.02
2018-07-10T08:48:32.216Z,23.06
2018-07-10T08:51:00.660Z,23.10
2018-07-10T08:53:28.408Z,23.16
2018-07-10T08:55:56.727Z,23.15
2018-07-10T08:58:25.089Z,23.25
2018-07-10T09:00:53.966Z,23.38
2018-07-10T09:03:22.592Z,23.45
2018-07-10T09:05:50.766Z,23.45
2018-07-10T09:08:19.117Z,23.52
2018-07-10T09:10:47.472Z,23.51
2018-07-10T09:13:15.208Z,23.51
2018-07-10T09:15:43.533Z,23.49
2018-07-10T09:18:11.937Z,23.39
2018-07-10T09:20:40.266Z,23.33
2018-07-10T09:23:09.318Z,23.23
2018-07-10T09:25:37.629Z,23.26
2018-07-10T09:28:06.070Z,23.35
2018-07-10T09:30:33.816Z,23.44
2018-07-10T09:33:02.134Z,23.51
2018-07-10T09:35:31.357Z,23.59
2018-07-10T09:37:59.146Z,23.63
2018-07-10T09:40:28.095Z,23.77
2018-07-10T09:42:56.410Z,23.86
2018-07-10T09:45:24.757Z,23.88
2018-07-10T09:47:53.184Z,23.89
2018-07-10T09:50:21.504Z,23.84
2018-07-10T09:52:49.818Z,23.89
2018-07-10T09:55:18.144Z,23.94
2018-07-10T09:57:46.572Z,23.95
2018-07-10T10:00:14.936Z,24.03
2018-07-10T10:02:42.674Z,24.09
2018-07-10T10:05:11.663Z,24.16
2018-07-10T10:07:39.407Z,24.16
2018-07-10T10:10:08.418Z,24.16
2018-07-10T10:12:36.837Z,24.18
2018-07-10T10:15:04.574Z,24.19
2018-07-10T10:17:33.465Z,24.26
2018-07-10T10:20:01.205Z,24.27
2018-07-10T10:22:29.586Z,24.18
2018-07-10T10:24:58.566Z,24.14
2018-07-10T10:27:26.351Z,24.15
2018-07-10T10:29:55.268Z,24.16
2018-07-10T10:32:23.556Z,24.09
2018-07-10T10:34:51.871Z,24.06
2018-07-10T10:37:20.205Z,24.10
2018-07-10T10:39:48.534Z,24.20
2018-07-10T10:42:16.339Z,24.29
2018-07-10T10:44:45.165Z,24.37
2018-07-10T10:47:12.898Z,24.36
2018-07-10T10:49:41.268Z,24.32
2018-07-10T10:52:10.165Z,24.34
2018-07-10T10:54:38.481Z,24.36
2018-07-10T10:57:06.216Z,24.39
2018-07-10T10:59:35.108Z,24.38
2018-07-10T11:02:03.421Z,24.41
2018-07-10T11:04:31.753Z,24.39
2018-07-10T11:07:00.409Z,24.41
2018-07-10T11:09:28.307Z,24.38
2018-07-10T11:11:57.170Z,24.44
2018-07-10T11:14:25.477Z,24.54
2018-07-10T11:16:53.213Z,24.61
2018-07-10T11:19:21.570Z,24.67
2018-07-10T11:21:50.420Z,24.76
2018-07-10T11:24:18.731Z,24.76
2018-07-10T11:26:46.485Z,24.85
2018-07-10T11:29:15.394Z,24.97
2018-07-10T11:31:43.707Z,25.07
2018-07-10T11:34:12.029Z,25.16
2018-07-10T11:36:40.358Z,25.24
2018-07-10T11:39:08.745Z,25.23
2018-07-10T11:41:37.031Z,25.23
2018-07-10T11:44:04.788Z,25.34
2018-07-10T11:46:33.704Z,25.46
2018-07-10T11:49:02.017Z,25.50
2018-07-10T11:51:30.420Z,25.62
2018-07-10T11:53:58.081Z,25.75
2018-07-10T11:56:26.986Z,25.81
2018-07-10T11:58:54.726Z,25.76
2018-07-10T12:01:23.621Z,25.95
2018-07-10T12:03:51.371Z,26.03
2018-07-10T12:06:19.706Z,26.04
2018-07-10T12:08:48.596Z,26.07
2018-07-10T12:11:16.916Z,26.11
2018-07-10T12:13:45.251Z,26.20
2018-07-10T12:16:12.979Z,26.30
2018-07-10T12:18:41.883Z,26.41
2018-07-10T12:21:10.205Z,26.50
2018-07-10T12:23:38.524Z,26.67
2018-07-10T12:26:06.276Z,26.77
2018-07-10T12:28:35.685Z,26.66
2018-07-10T12:31:04.573Z,26.51
2018-07-10T12:33:32.904Z,26.36
2018-07-10T12:36:00.698Z,26.44
2018-07-10T12:38:28.951Z,26.59
2018-07-10T12:40:57.838Z,26.84
2018-07-10T12:43:25.578Z,27.04
2018-07-10T12:45:54.477Z,27.00
2018-07-10T12:48:22.878Z,26.96
2018-07-10T12:50:50.606Z,27.07
2018-07-10T12:53:18.921Z,27.25
2018-07-10T12:55:47.233Z,27.28
2018-07-10T12:58:16.128Z,27.36
2018-07-10T13:00:43.868Z,27.45
2018-07-10T13:03:12.223Z,27.49
2018-07-10T13:05:41.393Z,27.40
2018-07-10T13:08:10.074Z,27.28
2018-07-10T13:10:38.393Z,27.09
2018-07-10T13:13:06.733Z,27.01
2018-07-10T13:15:35.118Z,26.81
2018-07-10T13:18:03.537Z,26.66
2018-07-10T13:20:31.881Z,26.56
2018-07-10T13:22:59.608Z,26.57
2018-07-10T13:25:28.815Z,26.60
2018-07-10T13:27:56.611Z,26.69
2018-07-10T13:30:24.868Z,26.89
2018-07-10T13:32:53.782Z,27.37
2018-07-10T13:35:22.100Z,27.31
2018-07-10T13:37:49.835Z,27.11
2018-07-10T13:40:18.986Z,27.20
2018-07-10T13:42:47.339Z,27.38
2018-07-10T13:45:15.108Z,27.94
2018-07-10T13:47:43.999Z,28.55
2018-07-10T13:50:11.733Z,28.94
2018-07-10T13:52:41.542Z,29.41
2018-07-10T13:55:09.273Z,29.68
2018-07-10T13:57:38.172Z,29.84
2018-07-10T14:00:06.488Z,29.96
2018-07-10T14:02:34.797Z,30.07
2018-07-10T14:05:02.544Z,30.06
2018-07-10T14:07:30.874Z,29.81
2018-07-10T14:09:59.195Z,29.60
2018-07-10T14:12:28.467Z,29.41
2018-07-10T14:14:56.766Z,29.14
2018-07-10T14:17:24.512Z,29.00
2018-07-10T14:19:52.832Z,28.92
2018-07-10T14:22:21.745Z,29.02
2018-07-10T14:24:49.475Z,29.29
2018-07-10T14:27:18.411Z,29.59
2018-07-10T14:32:45.270Z,29.92
2018-07-10T14:35:19.692Z,29.86
2018-07-10T14:37:48.142Z,29.70
2018-07-10T14:40:16.475Z,29.51
2018-07-10T14:42:44.994Z,29.42
2018-07-10T14:45:15.287Z,29.79
2018-07-10T14:47:43.472Z,30.08
2018-07-10T14:50:12.517Z,30.18
2018-07-10T14:52:41.670Z,30.04
2018-07-10T14:55:14.915Z,29.62
2018-07-10T14:57:42.960Z,29.48
2018-07-10T15:00:10.704Z,29.45
2018-07-10T15:02:39.615Z,29.37
2018-07-10T15:05:21.647Z,29.37
2018-07-10T15:07:49.148Z,29.50
2018-07-10T15:10:20.201Z,29.66
2018-07-10T15:12:48.901Z,29.77
2018-07-10T15:15:17.281Z,29.63
2018-07-10T15:17:45.541Z,29.34
2018-07-10T15:20:13.276Z,29.10
2018-07-10T15:22:53.148Z,29.17
2018-07-10T15:25:21.181Z,29.21
2018-07-10T15:27:49.496Z,28.82
2018-07-10T15:30:17.853Z,28.60
2018-07-10T15:32:50.062Z,28.31
2018-07-10T15:35:18.280Z,28.22
2018-07-10T15:37:48.046Z,28.21
2018-07-10T15:40:16.184Z,28.14
2018-07-10T15:42:45.084Z,27.97
2018-07-10T15:45:13.388Z,27.69
2018-07-10T15:47:41.705Z,27.37
2018-07-10T15:50:11.910Z,27.09
2018-07-10T15:52:40.720Z,26.86
2018-07-10T15:55:08.466Z,26.65
2018-07-10T15:57:37.161Z,26.50
2018-07-10T16:00:04.905Z,26.43
2018-07-10T16:02:33.239Z,26.26
2018-07-10T16:05:02.186Z,25.94
2018-07-10T16:07:30.305Z,25.76
2018-07-10T16:09:59.546Z,25.73
2018-07-10T16:12:28.138Z,25.61
2018-07-10T16:14:57.795Z,25.48
2018-07-10T16:17:24.961Z,25.40
2018-07-10T16:19:53.603Z,25.40
2018-07-10T16:22:22.546Z,25.37
2018-07-10T16:24:50.664Z,25.27
2018-07-10T16:27:18.973Z,25.20
2018-07-10T16:29:47.320Z,25.08
2018-07-10T16:32:15.642Z,24.99
2018-07-10T16:34:43.418Z,25.01
2018-07-10T16:37:13.807Z,25.00
2018-07-10T16:39:42.599Z,24.95
2018-07-10T16:42:11.203Z,24.83
2018-07-10T16:44:38.736Z,24.80
2018-07-10T16:47:07.351Z,24.75
2018-07-10T16:49:35.959Z,24.75
2018-07-10T16:52:04.276Z,24.73
2018-07-10T16:54:33.478Z,24.74
2018-07-10T16:57:02.783Z,24.69
2018-07-10T16:59:31.043Z,24.55
2018-07-10T17:02:01.392Z,24.50
2018-07-10T17:04:32.280Z,24.46
2018-07-10T17:06:57.038Z,24.42
2018-07-10T17:09:26.035Z,24.33
2018-07-10T17:11:54.389Z,24.26
2018-07-10T17:14:22.655Z,24.13
2018-07-10T17:16:54.749Z,24.04
2018-07-10T17:19:25.319Z,23.95
2018-07-10T17:21:53.613Z,23.96
2018-07-10T17:24:22.018Z,23.98
2018-07-10T17:26:50.337Z,23.90
2018-07-10T17:29:19.355Z,23.78
2018-07-10T17:31:46.459Z,23.80
2018-07-10T17:34:15.383Z,23.68
2018-07-10T17:36:43.696Z,23.66
2018-07-10T17:39:12.441Z,23.59
2018-07-10T17:41:41.413Z,23.54
2018-07-10T17:44:10.012Z,23.56
2018-07-10T17:46:38.606Z,23.60
2018-07-10T17:49:06.410Z,23.63
2018-07-10T17:51:34.983Z,23.62
2018-07-10T17:54:03.962Z,23.57
2018-07-10T17:56:32.345Z,23.55
2018-07-10T17:59:00.682Z,23.58
2018-07-10T18:01:29.004Z,23.61
2018-07-10T18:03:57.367Z,23.60
2018-07-10T18:06:25.078Z,23.61
2018-07-10T18:08:53.981Z,23.55
2018-07-10T18:11:21.754Z,23.50
2018-07-10T18:13:50.652Z,23.49
2018-07-10T18:16:19.003Z,23.47
2018-07-10T18:18:46.726Z,23.43
2018-07-10T18:21:17.136Z,23.43
2018-07-10T18:23:45.424Z,23.38
2018-07-10T18:26:15.485Z,23.23
2018-07-10T18:28:42.222Z,23.22
2018-07-10T18:31:10.533Z,23.25
2018-07-10T18:33:39.435Z,23.24
2018-07-10T18:36:08.839Z,23.21
2018-07-10T18:38:36.953Z,23.20
2018-07-10T18:41:05.321Z,23.20
2018-07-10T18:43:33.652Z,23.18
2018-07-10T18:46:01.978Z,23.16
2018-07-10T18:48:30.402Z,23.12
2018-07-10T18:50:58.746Z,23.04
2018-07-10T18:53:28.127Z,22.97
2018-07-10T18:55:56.270Z,22.85
2018-07-10T18:58:24.628Z,22.81
2018-07-10T19:00:52.972Z,22.78
2018-07-10T19:03:21.308Z,22.71
2018-07-10T19:05:49.645Z,22.60
2018-07-10T19:08:19.634Z,22.61
2018-07-10T19:10:47.693Z,22.59
2018-07-10T19:13:15.999Z,22.51
2018-07-10T19:15:44.340Z,22.51
2018-07-10T19:18:15.526Z,22.53
2018-07-10T19:20:43.874Z,22.49
2018-07-10T19:23:12.257Z,22.49
2018-07-10T19:25:41.515Z,22.52
2018-07-10T19:28:11.006Z,22.45
2018-07-10T19:30:40.119Z,22.43
2018-07-10T19:33:08.464Z,22.45
2018-07-10T19:35:37.838Z,22.47
2018-07-10T19:38:07.460Z,22.45
2018-07-10T19:40:35.826Z,22.46
2018-07-10T19:43:04.209Z,22.49
2018-07-10T19:45:32.722Z,22.46
2018-07-10T19:48:01.706Z,22.41
2018-07-10T19:50:30.026Z,22.41
2018-07-10T19:52:58.378Z,22.41
2018-07-10T19:55:27.290Z,22.38
2018-07-10T19:57:55.625Z,22.35
2018-07-10T20:00:24.197Z,22.31
2018-07-10T20:02:53.570Z,22.26
2018-07-10T20:05:22.148Z,22.20
2018-07-10T20:07:51.251Z,22.17
2018-07-10T20:10:20.996Z,22.03
2018-07-10T20:12:48.157Z,21.99
2018-07-10T20:15:16.492Z,21.91
2018-07-10T20:17:44.451Z,21.97
2018-07-10T20:20:12.566Z,22.02
2018-07-10T20:22:41.725Z,22.07
2018-07-10T20:25:10.798Z,22.11
2018-07-10T20:27:41.032Z,22.11
2018-07-10T20:30:10.575Z,22.10
2018-07-10T20:32:39.617Z,22.07
2018-07-10T20:35:07.945Z,22.04
2018-07-10T20:37:36.601Z,22.00
2018-07-10T20:40:06.252Z,21.95
2018-07-10T20:42:34.845Z,21.94
2018-07-10T20:45:03.401Z,21.95
2018-07-10T20:47:32.424Z,21.91
2018-07-10T20:50:00.937Z,21.88
2018-07-10T20:52:30.102Z,21.87
2018-07-10T20:55:06.231Z,21.86
2018-07-10T20:57:34.955Z,21.85
2018-07-10T21:00:03.316Z,21.80
2018-07-10T21:02:31.068Z,21.76
2018-07-10T21:04:59.969Z,21.74
2018-07-10T21:07:28.333Z,21.74
2018-07-10T21:09:56.084Z,21.70
2018-07-10T21:12:26.288Z,21.74
2018-07-10T21:14:54.037Z,21.76
2018-07-10T21:17:22.940Z,21.76
2018-07-10T21:19:51.261Z,21.74
2018-07-10T21:22:19.588Z,21.71
2018-07-10T21:24:47.641Z,21.69
2018-07-10T21:27:15.684Z,21.71
2018-07-10T21:29:44.543Z,21.67
2018-07-10T21:32:12.709Z,21.71
2018-07-10T21:34:41.189Z,21.73
2018-07-10T21:37:08.941Z,21.72
2018-07-10T21:39:37.848Z,21.68
2018-07-10T21:42:06.177Z,21.70
2018-07-10T21:44:33.917Z,21.70
2018-07-10T21:47:02.829Z,21.68
2018-07-10T21:49:31.157Z,21.68
2018-07-10T21:51:59.506Z,21.66
2018-07-10T21:54:27.388Z,21.66
2018-07-10T21:56:56.310Z,21.62
2018-07-10T21:59:24.629Z,21.57
2018-07-10T22:01:52.946Z,21.55
2018-07-10T22:04:20.687Z,21.55
2018-07-10T22:06:49.584Z,21.54
2018-07-10T22:09:17.365Z,21.47
2018-07-10T22:11:45.661Z,21.49
2018-07-10T22:14:14.569Z,21.53
2018-07-10T22:16:42.310Z,21.45
2018-07-10T22:19:11.201Z,21.29
2018-07-10T22:21:39.853Z,21.20
2018-07-10T22:24:07.598Z,21.18
2018-07-10T22:26:35.917Z,21.23
2018-07-10T22:29:04.233Z,21.26
2018-07-10T22:31:34.110Z,21.21
2018-07-10T22:34:02.409Z,21.22
2018-07-10T22:36:31.059Z,21.26
2018-07-10T22:38:59.378Z,21.29
2018-07-10T22:41:27.114Z,21.28
2018-07-10T22:43:56.017Z,21.29
2018-07-10T22:46:23.762Z,21.29
2018-07-10T22:51:48.644Z,21.25
2018-07-10T22:54:16.391Z,21.21
2018-07-10T22:56:45.289Z,21.21
2018-07-10T22:59:13.622Z,21.19
2018-07-10T23:01:41.914Z,21.17
2018-07-10T23:04:10.420Z,21.17
2018-07-10T23:06:38.736Z,21.15
2018-07-10T23:09:07.630Z,21.15
2018-07-10T23:14:34.798Z,21.15
2018-07-10T23:17:03.111Z,21.15
2018-07-10T23:19:32.014Z,21.14
2018-07-10T23:22:00.328Z,21.13
2018-07-10T23:24:28.204Z,21.07
2018-07-10T23:26:56.962Z,21.01
2018-07-10T23:29:25.280Z,20.88
2018-07-10T23:31:53.596Z,20.60
2018-07-10T23:34:21.342Z,20.39
2018-07-10T23:36:49.658Z,20.24
2018-07-10T23:39:17.976Z,20.15
2018-07-10T23:41:46.296Z,20.08
2018-07-10T23:44:15.193Z,20.03
2018-07-10T23:46:43.503Z,19.95
2018-07-10T23:49:11.246Z,19.88
2018-07-10T23:51:39.561Z,19.90
2018-07-10T23:54:08.456Z,19.90
2018-07-10T23:56:36.193Z,19.85
2018-07-10T23:59:06.014Z,19.83
